Time;durP1;ratioP1;P1;durP2;ratioP2;P2;SDS_P1;SDS_P2;PMS_P1;PMS_P2;Temp;Humidity;BMP_temperature;BMP_pressure;BME280_temperature;BME280_humidity;BME280_pressure;Samples;Min_cycle;Max_cycle;Signal;HPM_P1;HPM_P2
2021/10/09 00:01:26;;;;;;;5.50;4.10;;;15.80;99.90;;;;;;5011742;28;20117;-75
2021/10/09 00:03:53;;;;;;;5.53;4.40;;;15.80;99.90;;;;;;5012906;28;20057;-75
2021/10/09 00:06:19;;;;;;;6.15;4.43;;;15.80;99.90;;;;;;5013046;28;20029;-75
2021/10/09 00:08:45;;;;;;;5.60;3.92;;;15.80;99.90;;;;;;5012784;28;20109;-75
2021/10/09 00:11:18;;;;;;;6.35;4.18;;;15.80;99.90;;;;;;5012812;28;20080;-75
2021/10/09 00:13:44;;;;;;;4.38;3.80;;;15.80;99.90;;;;;;5012732;28;20068;-75
2021/10/09 00:16:10;;;;;;;6.15;4.20;;;15.80;99.90;;;;;;5010634;28;20103;-75
2021/10/09 00:18:36;;;;;;;5.93;5.05;;;15.80;99.90;;;;;;5012486;28;20480;-75
2021/10/09 00:21:01;;;;;;;4.25;3.85;;;15.80;99.90;;;;;;5011460;28;20148;-76
2021/10/09 00:23:27;;;;;;;4.43;3.60;;;15.80;99.90;;;;;;5012627;28;20080;-75
2021/10/09 00:25:55;;;;;;;4.70;3.90;;;15.70;99.90;;;;;;5012496;28;20113;-75
2021/10/09 00:28:21;;;;;;;5.35;4.05;;;15.80;99.90;;;;;;5012421;28;20077;-75
2021/10/09 00:30:47;;;;;;;5.90;3.85;;;15.80;99.90;;;;;;5012731;28;20022;-75
2021/10/09 00:33:13;;;;;;;4.65;4.20;;;15.70;99.90;;;;;;5012245;28;20069;-75
2021/10/09 00:35:38;;;;;;;5.65;4.10;;;15.80;99.90;;;;;;5027569;28;20022;-75
2021/10/09 00:38:04;;;;;;;4.38;3.97;;;15.70;99.90;;;;;;5012240;28;20499;-75
2021/10/09 00:40:30;;;;;;;4.10;3.72;;;15.70;99.90;;;;;;5012194;28;20018;-75
2021/10/09 00:42:56;;;;;;;5.47;4.07;;;15.70;99.90;;;;;;5012313;28;20541;-75
2021/10/09 00:45:21;;;;;;;4.90;4.30;;;15.60;99.90;;;;;;5012237;28;20488;-75
2021/10/09 00:47:49;;;;;;;4.65;4.25;;;15.60;99.90;;;;;;5011955;28;20075;-75
2021/10/09 00:50:15;;;;;;;5.03;4.10;;;15.60;99.90;;;;;;5011756;28;20064;-75
2021/10/09 00:52:43;;;;;;;4.95;3.85;;;15.60;99.90;;;;;;5012137;28;20485;-75
2021/10/09 00:55:10;;;;;;;7.18;4.00;;;15.60;99.90;;;;;;5012036;28;20026;-75
2021/10/09 00:57:38;;;;;;;4.22;3.83;;;15.60;99.90;;;;;;5012017;28;20037;-75
2021/10/09 01:00:07;;;;;;;4.40;4.03;;;15.60;99.90;;;;;;5011963;28;20492;-75
2021/10/09 01:02:37;;;;;;;4.38;3.88;;;15.60;99.90;;;;;;5011951;28;20030;-75
2021/10/09 01:05:04;;;;;;;4.82;4.00;;;15.60;99.90;;;;;;5011827;28;20111;-75
2021/10/09 01:07:30;;;;;;;4.88;3.75;;;15.60;99.90;;;;;;5010542;28;20156;-75
2021/10/09 01:09:56;;;;;;;5.07;4.10;;;15.60;99.90;;;;;;5011869;28;20109;-75
2021/10/09 01:12:22;;;;;;;5.78;3.72;;;15.60;99.90;;;;;;5027052;28;20468;-75
2021/10/09 01:14:47;;;;;;;3.97;3.63;;;15.60;99.90;;;;;;5010338;28;20273;-75
2021/10/09 01:17:14;;;;;;;4.20;3.80;;;15.60;99.90;;;;;;5003562;28;20046;-75
2021/10/09 01:19:41;;;;;;;4.50;3.97;;;15.60;99.90;;;;;;4992050;28;20033;-75
2021/10/09 01:22:08;;;;;;;4.97;4.05;;;15.60;99.90;;;;;;4992040;28;20366;-75
2021/10/09 01:24:35;;;;;;;4.55;3.63;;;15.60;99.90;;;;;;4992195;28;20058;-75
2021/10/09 01:27:02;;;;;;;7.38;3.55;;;15.60;99.90;;;;;;4991993;28;20030;-75
2021/10/09 01:29:27;;;;;;;5.82;4.35;;;15.60;99.90;;;;;;4990561;28;20473;-75
2021/10/09 01:31:53;;;;;;;5.95;4.25;;;15.60;99.90;;;;;;4990785;28;20041;-75
2021/10/09 01:34:20;;;;;;;6.05;3.63;;;15.60;99.90;;;;;;5001800;28;20034;-75
2021/10/09 01:36:46;;;;;;;4.90;4.40;;;15.60;99.90;;;;;;5011449;28;20045;-75
2021/10/09 01:39:15;;;;;;;5.30;4.10;;;15.60;99.90;;;;;;5011513;28;20053;-75
2021/10/09 01:41:43;;;;;;;4.68;4.28;;;15.60;99.90;;;;;;5011570;28;20014;-75
2021/10/09 01:44:09;;;;;;;4.32;3.90;;;15.60;99.90;;;;;;5011531;28;20101;-75
2021/10/09 01:46:35;;;;;;;4.60;3.75;;;15.60;99.90;;;;;;5011600;28;20264;-75
2021/10/09 01:49:01;;;;;;;5.05;3.83;;;15.60;99.90;;;;;;5011504;28;20061;-75
2021/10/09 01:51:28;;;;;;;5.18;4.63;;;15.50;99.90;;;;;;5011427;28;20112;-75
2021/10/09 01:53:54;;;;;;;5.25;4.25;;;15.50;99.90;;;;;;5011286;28;20096;-75
2021/10/09 01:56:20;;;;;;;5.05;3.58;;;15.50;99.90;;;;;;5011359;28;20049;-75
2021/10/09 01:58:45;;;;;;;5.32;4.32;;;15.50;99.90;;;;;;5011217;28;20100;-75
2021/10/09 02:01:11;;;;;;;8.40;4.45;;;15.50;99.90;;;;;;5011429;28;20025;-75
2021/10/09 02:03:37;;;;;;;5.43;4.05;;;15.50;99.90;;;;;;5011423;28;20059;-75
2021/10/09 02:06:04;;;;;;;5.35;3.80;;;15.60;99.90;;;;;;5011283;28;20553;-75
2021/10/09 02:08:29;;;;;;;5.35;3.88;;;15.50;99.90;;;;;;5011200;28;20476;-75
2021/10/09 02:11:07;;;;;;;7.30;4.32;;;15.50;99.90;;;;;;5010091;28;20029;-75
2021/10/09 02:24:43;;;;;;;5.05;4.07;;;15.50;99.90;;;;;;5011292;28;20114;-75
2021/10/09 02:27:10;;;;;;;4.35;3.92;;;15.50;99.90;;;;;;5026668;28;20104;-75
2021/10/09 02:29:35;;;;;;;6.93;4.05;;;15.40;99.90;;;;;;5011114;28;20468;-75
2021/10/09 02:32:01;;;;;;;3.85;3.50;;;15.40;99.90;;;;;;5011161;28;20084;-75
2021/10/09 02:34:27;;;;;;;4.65;4.18;;;15.50;99.90;;;;;;5010987;28;20061;-75
2021/10/09 02:36:53;;;;;;;6.70;4.80;;;15.50;99.90;;;;;;5009652;28;20037;-75
2021/10/09 02:39:18;;;;;;;5.60;4.30;;;15.50;99.90;;;;;;5010861;28;20109;-75
2021/10/09 02:41:44;;;;;;;5.32;4.00;;;15.50;99.90;;;;;;5014554;28;20530;-75
2021/10/09 02:44:10;;;;;;;4.95;4.15;;;15.50;99.90;;;;;;5013058;28;20022;-75
2021/10/09 02:46:36;;;;;;;3.80;3.50;;;15.50;99.90;;;;;;5014445;28;20020;-75
2021/10/09 02:49:02;;;;;;;4.90;3.92;;;15.60;99.90;;;;;;5014264;28;20021;-75
2021/10/09 02:51:28;;;;;;;4.55;3.67;;;15.50;99.90;;;;;;5012590;28;20018;-75
2021/10/09 02:53:54;;;;;;;5.00;3.45;;;15.50;99.90;;;;;;5014432;28;20034;-75
2021/10/09 02:56:19;;;;;;;5.10;3.67;;;15.60;99.90;;;;;;5014197;28;20030;-75
2021/10/09 02:58:45;;;;;;;4.38;3.97;;;15.50;99.90;;;;;;5014047;28;20033;-75
2021/10/09 03:01:11;;;;;;;3.83;3.28;;;15.50;99.90;;;;;;5014215;28;20061;-75
2021/10/09 03:03:37;;;;;;;4.43;4.03;;;15.50;99.90;;;;;;5029244;28;20022;-75
2021/10/09 03:06:03;;;;;;;9.43;4.38;;;15.50;99.90;;;;;;5014126;28;20103;-75
2021/10/09 03:08:28;;;;;;;4.60;3.72;;;15.50;99.90;;;;;;5013946;28;20529;-75
2021/10/09 03:10:54;;;;;;;4.65;4.20;;;15.50;99.90;;;;;;5013852;28;20033;-75
2021/10/09 03:13:20;;;;;;;4.70;4.30;;;15.50;99.90;;;;;;5014053;28;20022;-75
2021/10/09 03:15:45;;;;;;;6.20;3.97;;;15.50;99.90;;;;;;5013692;28;20026;-75
2021/10/09 03:18:11;;;;;;;5.15;4.10;;;15.50;99.90;;;;;;5013650;28;20018;-75
2021/10/09 03:20:37;;;;;;;3.60;3.40;;;15.50;99.90;;;;;;5029034;28;20041;-75
2021/10/09 03:23:03;;;;;;;4.40;4.00;;;15.50;99.90;;;;;;5013737;28;20106;-75
2021/10/09 03:25:28;;;;;;;3.88;3.58;;;15.50;99.90;;;;;;5013585;28;20265;-75
2021/10/09 03:27:54;;;;;;;5.75;3.53;;;15.50;99.90;;;;;;5004140;28;20033;-75
2021/10/09 03:30:20;;;;;;;4.13;3.42;;;15.40;99.90;;;;;;4992572;28;20159;-75
2021/10/09 03:32:46;;;;;;;4.22;3.90;;;15.40;99.90;;;;;;4994041;28;20041;-75
2021/10/09 03:35:12;;;;;;;4.93;4.18;;;15.40;99.90;;;;;;5010995;28;20117;-75
2021/10/09 03:37:39;;;;;;;4.25;3.83;;;15.40;99.90;;;;;;5013311;28;20036;-75
2021/10/09 03:40:08;;;;;;;3.67;3.35;;;15.40;99.90;;;;;;5013299;28;20432;-75
2021/10/09 03:45:12;;;;;;;5.05;3.90;;;15.40;99.90;;;;;;5013476;28;20061;-76
2021/10/09 03:52:52;;;;;;;3.97;3.60;;;15.40;99.90;;;;;;5012887;28;20119;-75
2021/10/09 03:55:19;;;;;;;3.97;3.58;;;15.30;99.90;;;;;;5028395;28;20065;-75
2021/10/09 03:57:45;;;;;;;3.50;3.30;;;15.40;99.90;;;;;;5013207;28;20558;-75
2021/10/09 04:00:13;;;;;;;3.97;3.58;;;15.40;99.90;;;;;;5028144;28;20053;-75
2021/10/09 04:02:40;;;;;;;5.20;4.40;;;15.40;99.90;;;;;;5028255;28;20108;-75
2021/10/09 04:05:06;;;;;;;4.78;3.42;;;15.40;99.90;;;;;;5013042;28;20022;-75
2021/10/09 04:07:32;;;;;;;4.45;3.45;;;15.40;99.90;;;;;;5012840;28;20479;-75
2021/10/09 04:09:57;;;;;;;6.80;4.20;;;15.40;99.90;;;;;;5012811;28;20036;-75
2021/10/09 04:12:23;;;;;;;6.60;3.53;;;15.40;99.90;;;;;;5012874;28;20026;-76
2021/10/09 04:14:49;;;;;;;4.32;3.95;;;15.40;99.90;;;;;;5012666;28;20065;-75
2021/10/09 04:17:15;;;;;;;4.15;3.40;;;15.40;99.90;;;;;;5012574;28;20124;-75
2021/10/09 04:19:41;;;;;;;4.78;3.58;;;15.40;99.90;;;;;;5012551;28;20026;-75
2021/10/09 04:22:06;;;;;;;4.53;3.72;;;15.50;99.90;;;;;;5012767;28;20021;-75
2021/10/09 04:24:32;;;;;;;6.72;3.30;;;15.50;99.90;;;;;;5012560;28;20167;-75
2021/10/09 04:26:58;;;;;;;4.03;3.72;;;15.50;99.90;;;;;;5012706;28;20113;-75
2021/10/09 04:29:24;;;;;;;4.18;3.83;;;15.50;99.90;;;;;;5012408;28;20057;-75
2021/10/09 04:31:51;;;;;;;8.40;3.72;;;15.40;99.90;;;;;;5012569;28;20456;-75
2021/10/09 04:34:16;;;;;;;4.25;3.90;;;15.40;99.90;;;;;;5012491;28;20472;-75
2021/10/09 04:36:42;;;;;;;4.20;3.70;;;15.40;99.90;;;;;;5012408;28;20029;-75
2021/10/09 04:39:08;;;;;;;3.97;3.65;;;15.40;99.90;;;;;;5012261;28;20033;-75
2021/10/09 04:41:34;;;;;;;5.43;4.25;;;15.40;99.90;;;;;;5012406;28;20022;-75
2021/10/09 04:43:59;;;;;;;6.82;3.40;;;15.50;99.90;;;;;;5012389;28;20105;-75
2021/10/09 04:46:25;;;;;;;7.38;4.28;;;15.50;99.90;;;;;;5012302;28;20075;-75
2021/10/09 04:48:51;;;;;;;4.60;3.78;;;15.40;99.90;;;;;;5012244;28;20467;-75
2021/10/09 04:51:17;;;;;;;3.67;3.22;;;15.40;99.90;;;;;;5010645;28;20030;-75
2021/10/09 04:53:42;;;;;;;4.75;4.10;;;15.40;99.90;;;;;;5012050;28;20053;-75
2021/10/09 04:56:08;;;;;;;5.53;3.90;;;15.40;99.90;;;;;;5012030;28;20025;-75
2021/10/09 04:58:34;;;;;;;7.60;3.90;;;15.40;99.90;;;;;;5012155;28;20029;-75
2021/10/09 05:01:00;;;;;;;5.60;4.18;;;15.40;99.90;;;;;;5012065;28;20080;-75
2021/10/09 05:03:25;;;;;;;4.25;3.85;;;15.40;99.90;;;;;;5011776;28;20030;-75
2021/10/09 05:05:51;;;;;;;6.13;4.15;;;15.40;99.90;;;;;;5011926;28;20025;-75
2021/10/09 05:08:17;;;;;;;5.40;4.22;;;15.50;99.90;;;;;;5011940;28;20022;-75
2021/10/09 05:10:44;;;;;;;4.68;4.28;;;15.40;99.90;;;;;;5011874;28;20030;-75
2021/10/09 05:13:10;;;;;;;5.57;3.80;;;15.50;99.90;;;;;;5027111;28;20034;-75
2021/10/09 05:15:40;;;;;;;3.90;3.60;;;15.40;99.90;;;;;;5011776;28;20476;-75
2021/10/09 05:18:06;;;;;;;4.32;3.83;;;15.30;99.90;;;;;;5026871;28;20042;-75
2021/10/09 05:20:32;;;;;;;3.90;3.60;;;15.30;99.90;;;;;;5011660;28;20018;-75
2021/10/09 05:22:58;;;;;;;5.22;3.67;;;15.30;99.90;;;;;;5011733;28;20084;-75
2021/10/09 05:25:23;;;;;;;7.03;4.18;;;15.30;99.90;;;;;;5011764;28;20393;-75
2021/10/09 05:28:00;;;;;;;3.90;3.60;;;15.40;99.90;;;;;;5026936;28;20117;-75
2021/10/09 05:30:26;;;;;;;7.07;4.32;;;15.40;99.90;;;;;;5011684;28;20029;-75
2021/10/09 05:33:19;;;;;;;4.32;3.92;;;15.40;99.90;;;;;;4999760;28;20023;-75
2021/10/09 05:35:45;;;;;;;;;;;15.40;99.90;;;;;;4993178;28;20097;-75
2021/10/09 05:38:10;;;;;;;5.43;4.57;;;15.40;99.90;;;;;;5004692;28;19917;-75
2021/10/09 05:40:36;;;;;;;8.00;4.43;;;15.30;99.90;;;;;;5009629;28;20014;-75
2021/10/09 05:43:03;;;;;;;4.45;4.00;;;15.30;99.90;;;;;;5011595;28;20110;-75
2021/10/09 05:45:28;;;;;;;5.60;4.10;;;15.30;99.90;;;;;;5011600;28;20029;-75
2021/10/09 05:47:54;;;;;;;4.22;3.92;;;15.30;99.90;;;;;;5011591;28;20514;-75
2021/10/09 05:50:25;;;;;;;5.55;4.15;;;15.30;99.90;;;;;;5011459;28;20387;-75
2021/10/09 05:53:08;;;;;;;4.97;3.97;;;15.30;99.90;;;;;;5011446;28;20117;-75
2021/10/09 05:55:40;;;;;;;5.05;4.55;;;15.30;99.90;;;;;;5011535;28;20021;-75
2021/10/09 06:00:55;;;;;;;6.32;3.90;;;15.30;99.90;;;;;;5011490;28;20495;-75
2021/10/09 06:46:52;;;;;;;6.65;4.55;;;15.40;99.90;;;;;;5014486;28;20034;-75
2021/10/09 06:49:33;;;;;;;6.95;4.43;;;15.40;99.90;;;;;;5014414;28;20113;-75
2021/10/09 07:00:11;;;;;;;10.38;5.00;;;15.50;99.90;;;;;;5014202;28;20087;-75
2021/10/09 07:02:41;;;;;;;7.18;4.47;;;15.50;99.90;;;;;;5029338;28;20412;-75
2021/10/09 07:05:09;;;;;;;6.65;4.55;;;15.60;99.90;;;;;;5014138;28;20109;-75
2021/10/09 07:07:40;;;;;;;5.13;4.03;;;15.50;99.90;;;;;;5012660;28;20021;-76
2021/10/09 07:10:07;;;;;;;7.60;5.43;;;15.50;99.90;;;;;;5013977;28;20497;-75
2021/10/09 07:12:32;;;;;;;5.00;4.43;;;15.50;99.90;;;;;;5029363;28;20387;-75
2021/10/09 07:14:58;;;;;;;5.85;4.50;;;15.60;99.90;;;;;;5014006;28;20034;-75
2021/10/09 07:17:24;;;;;;;5.05;4.40;;;15.60;99.90;;;;;;5013573;28;20046;-75
2021/10/09 07:19:50;;;;;;;7.95;4.40;;;15.70;99.90;;;;;;5013905;28;20033;-75
2021/10/09 07:22:15;;;;;;;5.90;4.13;;;15.70;99.90;;;;;;5013791;28;20385;-75
2021/10/09 07:24:41;;;;;;;4.78;4.10;;;15.80;99.90;;;;;;5013498;28;20037;-75
2021/10/09 07:27:07;;;;;;;5.25;4.10;;;15.80;99.90;;;;;;5013732;28;20108;-75
2021/10/09 07:29:32;;;;;;;5.63;3.97;;;15.80;99.90;;;;;;5013489;28;20037;-75
2021/10/09 07:31:58;;;;;;;8.63;3.38;;;15.80;99.90;;;;;;5013695;28;20029;-75
2021/10/09 07:34:24;;;;;;;6.22;4.20;;;15.80;99.90;;;;;;5013524;28;20392;-75
2021/10/09 07:36:50;;;;;;;6.13;3.65;;;15.80;99.90;;;;;;4999702;28;20387;-75
2021/10/09 07:39:16;;;;;;;4.45;3.72;;;15.90;99.90;;;;;;4993988;28;20031;-75
2021/10/09 07:41:41;;;;;;;3.95;3.47;;;15.90;99.40;;;;;;4994048;28;20510;-75
2021/10/09 07:44:07;;;;;;;4.13;3.17;;;15.90;99.90;;;;;;4993790;28;20105;-75
2021/10/09 07:46:33;;;;;;;6.70;3.85;;;16.00;99.90;;;;;;4992608;28;20061;-75
2021/10/09 07:48:59;;;;;;;3.42;2.90;;;16.00;99.90;;;;;;4993716;28;20026;-75
2021/10/09 07:51:25;;;;;;;7.47;4.30;;;16.00;99.90;;;;;;4993750;28;20650;-75
2021/10/09 07:53:50;;;;;;;4.93;4.05;;;16.00;99.10;;;;;;4993665;28;20535;-75
2021/10/09 07:56:16;;;;;;;7.75;3.42;;;16.00;99.10;;;;;;4993526;28;20037;-75
2021/10/09 07:58:42;;;;;;;5.10;3.78;;;16.10;99.70;;;;;;4993534;28;20060;-75
2021/10/09 08:01:08;;;;;;;5.95;3.67;;;16.10;99.90;;;;;;4993559;28;20058;-75
2021/10/09 08:03:34;;;;;;;4.35;3.65;;;16.10;99.30;;;;;;4997227;28;20060;-75
2021/10/09 08:06:00;;;;;;;5.03;3.22;;;16.10;98.70;;;;;;5013081;28;20453;-75
2021/10/09 08:08:25;;;;;;;7.55;4.07;;;16.10;98.50;;;;;;5011702;28;20023;-75
2021/10/09 08:10:53;;;;;;;6.68;3.65;;;16.20;97.30;;;;;;5028887;28;20072;-75
2021/10/09 08:13:19;;;;;;;10.10;3.55;;;16.20;97.90;;;;;;5013984;28;20033;-75
2021/10/09 08:15:45;;;;;;;4.10;3.65;;;16.20;98.90;;;;;;5013411;28;20030;-75
2021/10/09 08:18:12;;;;;;;4.30;3.28;;;16.20;97.90;;;;;;5012297;28;20040;-75
2021/10/09 08:20:40;;;;;;;3.78;3.30;;;16.20;97.50;;;;;;5013886;28;20022;-75
2021/10/09 08:23:10;;;;;;;4.45;3.20;;;16.30;96.10;;;;;;5013818;28;20033;-75
2021/10/09 08:36:28;;;;;;;3.15;2.88;;;16.50;94.70;;;;;;5011069;28;20546;-75
2021/10/09 08:38:54;;;;;;;5.47;3.42;;;16.50;95.30;;;;;;5012750;28;20508;-75
2021/10/09 08:41:20;;;;;;;5.63;3.53;;;16.50;94.70;;;;;;5012730;28;20025;-75
2021/10/09 08:43:48;;;;;;;6.50;3.35;;;16.50;93.90;;;;;;5027928;28;20030;-75
2021/10/09 08:46:16;;;;;;;5.00;3.25;;;16.50;92.30;;;;;;5011269;28;20030;-75
2021/10/09 08:48:43;;;;;;;8.07;3.53;;;16.60;93.60;;;;;;5011892;28;20026;-75
2021/10/09 08:51:10;;;;;;;7.15;3.33;;;16.70;93.50;;;;;;5012248;28;20022;-75
2021/10/09 08:53:35;;;;;;;7.20;3.53;;;16.70;93.10;;;;;;5012440;28;20037;-75
2021/10/09 08:56:01;;;;;;;3.85;2.78;;;16.80;93.00;;;;;;5027405;28;20030;-75
2021/10/09 08:58:33;;;;;;;5.32;3.78;;;16.90;92.90;;;;;;5012094;28;20037;-75
2021/10/09 09:03:35;;;;;;;5.18;3.50;;;17.00;94.00;;;;;;5012183;28;20488;-75
2021/10/09 09:06:58;;;;;;;5.95;3.30;;;17.10;93.20;;;;;;5012142;28;20476;-75
2021/10/09 09:25:47;;;;;;;5.70;3.17;;;17.20;90.80;;;;;;5012171;28;20041;-75
2021/10/09 09:31:09;;;;;;;4.72;2.78;;;17.30;90.40;;;;;;5011742;28;20037;-75
2021/10/09 09:33:44;;;;;;;3.88;2.95;;;17.40;90.80;;;;;;5011938;28;20021;-76
2021/10/09 09:36:23;;;;;;;5.25;3.47;;;17.40;90.40;;;;;;5010692;28;20415;-76
2021/10/09 09:41:44;;;;;;;5.38;3.03;;;17.60;92.00;;;;;;4992373;28;20137;-76
2021/10/09 09:44:12;;;;;;;4.05;2.88;;;17.50;89.60;;;;;;4992178;28;20018;-76
2021/10/09 09:46:38;;;;;;;6.18;3.03;;;17.40;90.30;;;;;;4992267;28;20026;-76
2021/10/09 09:49:05;;;;;;;3.55;2.88;;;17.40;90.60;;;;;;4994452;28;20030;-76
2021/10/09 09:51:37;;;;;;;5.88;3.30;;;17.40;91.30;;;;;;4996182;28;20581;-75
2021/10/09 09:54:03;;;;;;;3.40;3.10;;;17.40;91.70;;;;;;4994746;28;20549;-76
2021/10/09 09:56:30;;;;;;;6.25;3.65;;;17.30;91.90;;;;;;4996013;28;20520;-76
2021/10/09 09:58:59;;;;;;;4.38;3.10;;;17.30;91.60;;;;;;4995874;28;20503;-76
2021/10/09 10:01:32;;;;;;;5.78;2.80;;;17.30;90.60;;;;;;4995784;28;20026;-75
2021/10/09 10:04:01;;;;;;;5.63;3.35;;;17.20;91.30;;;;;;5001416;28;20022;-76
2021/10/09 10:06:29;;;;;;;3.78;2.78;;;17.30;92.50;;;;;;5013898;28;20088;-76
2021/10/09 10:08:58;;;;;;;6.57;3.67;;;17.20;93.50;;;;;;5014315;28;20030;-75
2021/10/09 10:11:25;;;;;;;4.45;3.50;;;17.20;90.10;;;;;;5015480;28;20029;-76
2021/10/09 10:13:52;;;;;;;6.25;3.28;;;17.20;89.20;;;;;;5015361;28;20029;-77
2021/10/09 10:16:18;;;;;;;5.95;4.10;;;17.30;88.70;;;;;;5013812;28;20073;-76
2021/10/09 10:18:48;;;;;;;3.58;3.28;;;17.30;89.20;;;;;;5013956;28;20034;-77
2021/10/09 10:21:45;;;;;;;3.25;2.92;;;17.40;87.80;;;;;;5014220;28;20026;-77
2021/10/09 10:24:12;;;;;;;6.65;3.65;;;17.50;90.60;;;;;;5015051;28;20026;-77
2021/10/09 10:26:38;;;;;;;4.35;3.15;;;17.60;89.90;;;;;;5013768;28;20033;-76
2021/10/09 10:29:04;;;;;;;6.53;2.88;;;17.60;86.80;;;;;;5014999;28;20068;-76
2021/10/09 10:31:33;;;;;;;3.88;3.00;;;17.70;90.40;;;;;;5014979;28;20029;-76
2021/10/09 10:34:22;;;;;;;7.07;3.40;;;17.60;86.90;;;;;;5013659;28;20033;-76
2021/10/09 10:36:48;;;;;;;3.25;2.90;;;17.60;84.60;;;;;;5014809;28;20076;-76
2021/10/09 10:39:19;;;;;;;5.75;2.67;;;17.60;85.90;;;;;;5014666;28;20084;-76
2021/10/09 10:41:59;;;;;;;4.30;2.80;;;17.60;88.00;;;;;;5014769;28;20026;-76
2021/10/09 10:45:33;;;;;;;3.17;2.88;;;17.60;87.40;;;;;;5014692;28;20022;-76
2021/10/09 10:50:41;;;;;;;2.67;2.42;;;17.80;84.10;;;;;;5014693;28;20048;-77
2021/10/09 10:53:10;;;;;;;3.05;2.70;;;17.70;81.30;;;;;;5014470;28;20061;-77
2021/10/09 10:56:08;;;;;;;8.50;2.58;;;17.80;84.10;;;;;;5029684;28;20072;-76
2021/10/09 10:58:35;;;;;;;3.70;2.85;;;17.80;82.40;;;;;;5013882;28;20539;-76
2021/10/09 11:01:24;;;;;;;3.70;2.75;;;17.70;83.30;;;;;;5028903;28;20029;-77
2021/10/09 11:03:54;;;;;;;6.80;3.70;;;17.70;80.50;;;;;;5021930;28;20125;-76
2021/10/09 11:06:22;;;;;;;5.63;2.70;;;17.60;79.50;;;;;;5012999;28;20029;-77
2021/10/09 11:08:49;;;;;;;2.65;2.45;;;17.60;80.30;;;;;;5012907;28;20037;-76
2021/10/09 11:11:16;;;;;;;3.22;2.88;;;17.60;82.20;;;;;;5012924;28;20292;-77
2021/10/09 11:13:46;;;;;;;2.75;2.30;;;17.60;83.10;;;;;;5013208;28;20281;-77
2021/10/09 11:16:12;;;;;;;2.95;2.65;;;17.70;82.30;;;;;;5014097;28;20045;-77
2021/10/09 11:18:52;;;;;;;5.97;3.25;;;17.90;79.60;;;;;;5013782;28;20476;-77
2021/10/09 11:21:18;;;;;;;6.88;2.22;;;17.90;79.60;;;;;;5014168;28;20369;-76
2021/10/09 11:23:51;;;;;;;4.78;2.80;;;18.10;81.80;;;;;;5012629;28;20025;-77
2021/10/09 11:26:18;;;;;;;4.20;2.45;;;18.10;81.90;;;;;;5014085;28;20112;-75
2021/10/09 11:28:44;;;;;;;4.20;2.42;;;18.20;82.90;;;;;;5013782;28;20499;-75
2021/10/09 11:31:23;;;;;;;6.15;2.70;;;18.20;82.50;;;;;;5013921;28;20041;-75
2021/10/09 11:33:58;;;;;;;9.43;3.15;;;18.30;78.30;;;;;;5013693;28;20097;-76
2021/10/09 11:36:24;;;;;;;2.70;2.50;;;18.30;78.30;;;;;;5012305;28;20392;-76
2021/10/09 11:39:13;;;;;;;3.75;2.60;;;18.20;75.80;;;;;;5011772;28;20127;-76
2021/10/09 11:41:42;;;;;;;5.20;3.20;;;18.20;78.50;;;;;;4993040;28;20022;-76
2021/10/09 11:44:28;;;;;;;2.95;2.65;;;18.30;78.30;;;;;;5009310;28;20029;-76
2021/10/09 11:55:28;;;;;;;3.17;2.47;;;18.60;75.00;;;;;;4994150;28;20481;-76
2021/10/09 11:57:55;;;;;;;3.88;2.60;;;18.60;72.70;;;;;;4992264;28;20034;-76
2021/10/09 12:00:31;;;;;;;4.70;3.00;;;18.70;77.40;;;;;;4992257;28;20461;-76
2021/10/09 12:03:35;;;;;;;7.10;2.92;;;18.80;76.70;;;;;;4992205;28;20030;-76
2021/10/09 12:06:11;;;;;;;8.85;3.10;;;18.90;74.70;;;;;;5008495;28;20019;-75
2021/10/09 12:08:51;;;;;;;6.03;2.92;;;18.80;73.60;;;;;;5008225;28;20030;-75
2021/10/09 12:11:19;;;;;;;3.05;2.70;;;18.90;74.10;;;;;;4991519;28;20030;-75
2021/10/09 12:13:54;;;;;;;7.32;3.50;;;18.80;73.10;;;;;;4993092;28;20019;-75
2021/10/09 12:16:29;;;;;;;2.35;2.15;;;18.90;76.70;;;;;;4993049;28;20054;-76
2021/10/09 12:18:57;;;;;;;3.33;2.58;;;18.90;74.60;;;;;;4993364;28;20117;-76
2021/10/09 12:21:24;;;;;;;3.38;2.40;;;18.90;73.80;;;;;;4993234;28;20022;-76
2021/10/09 12:23:52;;;;;;;3.13;2.72;;;18.90;75.60;;;;;;4993108;28;20108;-76
2021/10/09 12:26:19;;;;;;;3.22;2.92;;;19.00;76.20;;;;;;4993136;28;20145;-76
2021/10/09 12:29:09;;;;;;;2.90;2.70;;;19.00;73.80;;;;;;4993112;28;20435;-76
2021/10/09 12:31:38;;;;;;;6.10;2.30;;;19.10;77.20;;;;;;4992980;28;20408;-76
2021/10/09 12:34:31;;;;;;;6.65;2.78;;;19.10;74.80;;;;;;5068672;28;20424;-77
2021/10/09 12:37:22;;;;;;;3.97;2.55;;;19.10;73.90;;;;;;5067433;28;20033;-77
2021/10/09 12:40:15;;;;;;;5.40;2.60;;;19.10;72.80;;;;;;5067345;28;20063;-77
2021/10/09 12:43:00;;;;;;;2.78;2.50;;;19.00;69.70;;;;;;5068696;28;20429;-77
2021/10/09 12:45:27;;;;;;;6.72;2.47;;;19.00;72.80;;;;;;5068537;28;20029;-75
2021/10/09 12:47:57;;;;;;;3.88;3.00;;;19.10;74.50;;;;;;5068534;28;20328;-77
2021/10/09 12:50:27;;;;;;;4.35;2.63;;;19.10;71.40;;;;;;5068699;28;20021;-77
2021/10/09 12:52:56;;;;;;;3.55;2.83;;;19.10;73.80;;;;;;5067069;28;20467;-77
2021/10/09 12:55:26;;;;;;;3.47;2.67;;;19.10;70.40;;;;;;5068403;28;20041;-77
2021/10/09 12:57:53;;;;;;;4.88;2.50;;;19.00;72.10;;;;;;5066934;28;20392;-77
2021/10/09 13:00:21;;;;;;;2.83;2.63;;;18.90;73.30;;;;;;5066498;28;20017;-74
2021/10/09 13:02:47;;;;;;;3.50;2.45;;;18.90;71.30;;;;;;5048347;28;20120;-74
2021/10/09 13:05:13;;;;;;;5.80;2.88;;;18.90;70.20;;;;;;5065755;28;20040;-75
2021/10/09 13:07:39;;;;;;;3.58;2.63;;;18.80;69.00;;;;;;5068069;28;20028;-75
2021/10/09 13:10:06;;;;;;;3.88;2.60;;;18.80;71.30;;;;;;5068273;28;20028;-75
2021/10/09 13:12:32;;;;;;;3.47;3.03;;;18.80;74.00;;;;;;5067910;28;20025;-74
2021/10/09 13:14:58;;;;;;;6.72;3.15;;;18.70;73.70;;;;;;5067978;28;20338;-74
2021/10/09 13:17:24;;;;;;;4.00;2.88;;;18.70;74.80;;;;;;5067959;28;20043;-75
2021/10/09 13:19:49;;;;;;;3.45;2.90;;;18.70;76.10;;;;;;5067803;28;20043;-74
2021/10/09 13:22:15;;;;;;;4.30;2.78;;;18.70;74.90;;;;;;5067758;28;20441;-75
2021/10/09 13:24:41;;;;;;;6.40;3.35;;;18.70;73.20;;;;;;5067876;28;20056;-74
2021/10/09 13:27:06;;;;;;;4.00;2.50;;;18.70;73.80;;;;;;5067661;28;20065;-74
2021/10/09 13:29:32;;;;;;;3.53;2.80;;;18.80;75.40;;;;;;5067672;28;20171;-74
2021/10/09 13:31:58;;;;;;;4.60;2.83;;;18.80;77.70;;;;;;5066123;28;20559;-75
2021/10/09 13:34:24;;;;;;;5.32;3.60;;;18.90;79.10;;;;;;5067266;28;20423;-75
2021/10/09 13:36:50;;;;;;;8.00;3.00;;;18.90;78.40;;;;;;5067619;28;20383;-74
2021/10/09 13:39:17;;;;;;;7.43;3.22;;;18.90;78.30;;;;;;5067646;28;20100;-75
2021/10/09 13:41:42;;;;;;;2.47;2.33;;;18.90;76.10;;;;;;5055696;28;20017;-75
2021/10/09 13:44:08;;;;;;;4.80;3.17;;;18.90;76.90;;;;;;5042068;28;20040;-75
2021/10/09 13:46:37;;;;;;;5.55;2.78;;;18.90;78.70;;;;;;5034235;28;20029;-74
2021/10/09 13:49:06;;;;;;;3.97;2.78;;;18.90;76.10;;;;;;5033947;28;20017;-74
2021/10/09 13:51:33;;;;;;;4.15;2.72;;;18.90;75.00;;;;;;5034017;28;20034;-74
2021/10/09 13:53:59;;;;;;;3.88;2.83;;;18.90;75.30;;;;;;5034095;28;20021;-74
2021/10/09 13:56:25;;;;;;;6.13;3.03;;;18.80;76.00;;;;;;5034030;28;20029;-75
2021/10/09 13:58:51;;;;;;;6.60;2.85;;;18.80;77.10;;;;;;5033832;28;20028;-74
2021/10/09 14:01:17;;;;;;;5.38;3.00;;;18.80;74.80;;;;;;5034031;28;20029;-75
2021/10/09 14:03:44;;;;;;;3.15;2.80;;;18.80;74.60;;;;;;5033818;28;20068;-75
2021/10/09 14:06:10;;;;;;;3.72;3.05;;;18.80;74.60;;;;;;5032523;28;20569;-75
2021/10/09 14:08:36;;;;;;;2.92;2.70;;;18.80;74.30;;;;;;5033802;28;20053;-75
2021/10/09 14:11:03;;;;;;;3.50;3.20;;;18.90;73.50;;;;;;5033775;28;20373;-75
2021/10/09 14:13:29;;;;;;;4.63;2.85;;;18.90;72.30;;;;;;5033598;28;20045;-75
2021/10/09 14:15:55;;;;;;;3.83;2.60;;;18.90;69.30;;;;;;5033807;28;20029;-75
2021/10/09 14:18:21;;;;;;;6.97;3.13;;;18.90;71.80;;;;;;5032140;28;20017;-75
2021/10/09 14:20:52;;;;;;;3.03;2.22;;;19.00;74.70;;;;;;5032266;28;20017;-75
2021/10/09 14:23:18;;;;;;;3.33;2.67;;;19.00;75.70;;;;;;5032108;28;20018;-75
2021/10/09 14:25:45;;;;;;;5.68;2.63;;;19.00;78.70;;;;;;5032250;28;20116;-75
2021/10/09 14:28:11;;;;;;;2.70;2.50;;;18.90;74.60;;;;;;5032126;28;20033;-75
2021/10/09 14:30:39;;;;;;;4.13;3.38;;;19.00;74.50;;;;;;5033094;28;20030;-74
2021/10/09 14:33:05;;;;;;;4.57;2.50;;;19.00;75.10;;;;;;5033198;28;20415;-74
2021/10/09 14:35:31;;;;;;;4.75;2.80;;;19.00;76.10;;;;;;5032052;28;20040;-75
2021/10/09 14:37:57;;;;;;;5.18;2.97;;;19.00;73.70;;;;;;5033114;28;20017;-75
2021/10/09 14:40:23;;;;;;;3.58;2.13;;;19.00;71.60;;;;;;5033217;28;20726;-75
2021/10/09 14:42:49;;;;;;;2.30;2.10;;;18.90;69.70;;;;;;5033163;28;20029;-75
2021/10/09 14:45:16;;;;;;;6.78;2.10;;;18.90;65.80;;;;;;5032879;28;20048;-75
2021/10/09 15:19:56;;;;;;;5.20;2.28;;;18.60;70.40;;;;;;5052544;28;20051;-75
2021/10/09 15:22:21;;;;;;;2.67;2.40;;;18.60;72.60;;;;;;5052367;28;20037;-75
2021/10/09 15:24:47;;;;;;;2.60;2.38;;;18.60;74.50;;;;;;5052167;28;20104;-75
2021/10/09 15:27:13;;;;;;;2.88;2.17;;;18.60;74.80;;;;;;5051952;28;20029;-75